Time;durP1;ratioP1;P1;durP2;ratioP2;P2;SDS_P1;SDS_P2;PMS_P1;PMS_P2;Temp;Humidity;BMP_temperature;BMP_pressure;BME280_temperature;BME280_humidity;BME280_pressure;Samples;Min_cycle;Max_cycle;Signal;HPM_P1;HPM_P2
2022/10/16 00:01:29;;;;;;;0.40;0.20;;;;;;;11.34;83.96;95873.50;5135278;27;20415;-54
2022/10/16 00:03:58;;;;;;;0.40;0.23;;;;;;;11.60;84.23;95909.69;5135260;27;20416;-54
2022/10/16 00:06:28;;;;;;;0.40;0.30;;;;;;;11.82;81.76;95912.16;5134758;27;20436;-54
2022/10/16 00:08:57;;;;;;;0.80;0.80;;;;;;;10.99;85.72;95913.13;5133956;27;20434;-55
2022/10/16 00:11:28;;;;;;;0.50;0.50;;;;;;;9.93;94.86;95877.88;5134915;27;20433;-54
2022/10/16 00:14:00;;;;;;;0.83;0.83;;;;;;;9.91;100.00;95931.09;5135033;27;20475;-54
2022/10/16 00:16:29;;;;;;;0.70;0.67;;;;;;;9.86;100.00;95923.09;5135010;27;20499;-54
2022/10/16 00:18:57;;;;;;;0.87;0.30;;;;;;;9.78;100.00;95928.00;5134936;27;20440;-54
2022/10/16 00:21:28;;;;;;;0.50;0.30;;;;;;;10.55;98.88;95916.03;5134667;27;20433;-54
2022/10/16 00:23:58;;;;;;;0.50;0.47;;;;;;;10.93;93.10;95914.19;5134541;27;20960;-55
2022/10/16 00:26:29;;;;;;;0.50;0.30;;;;;;;11.00;91.19;95920.84;5134539;27;20822;-54
2022/10/16 00:28:58;;;;;;;0.40;0.30;;;;;;;10.81;92.21;95917.00;5134494;27;20444;-53
2022/10/16 00:31:27;;;;;;;0.40;0.37;;;;;;;10.06;99.02;95920.63;5134482;27;20434;-53
2022/10/16 00:33:55;;;;;;;0.40;0.30;;;;;;;10.33;99.25;95915.31;5134225;27;20473;-53
2022/10/16 00:36:26;;;;;;;2.40;0.30;;;;;;;10.17;100.00;95911.75;5134717;27;20836;-53
2022/10/16 00:38:55;;;;;;;0.93;0.40;;;;;;;10.46;97.92;95917.56;5134220;27;20451;-53
2022/10/16 00:41:25;;;;;;;0.40;0.30;;;;;;;10.60;95.71;95921.38;5134256;27;20474;-53
2022/10/16 00:43:56;;;;;;;0.40;0.30;;;;;;;10.82;94.02;95918.63;5134059;27;20446;-53
2022/10/16 00:46:28;;;;;;;0.30;0.20;;;;;;;10.81;92.18;95919.66;5134493;27;20484;-53
2022/10/16 00:49:01;;;;;;;0.83;0.50;;;;;;;10.90;92.43;95910.19;5134333;27;20467;-53
2022/10/16 00:51:33;;;;;;;0.40;0.30;;;;;;;10.88;92.02;95904.31;5134005;27;20440;-53
2022/10/16 00:54:03;;;;;;;0.40;0.27;;;;;;;10.59;91.71;95850.06;5133855;27;20483;-53
2022/10/16 00:56:34;;;;;;;0.70;0.67;;;;;;;10.99;90.72;95908.63;5133953;27;20433;-53
2022/10/16 00:59:07;;;;;;;0.60;0.50;;;;;;;10.51;91.33;95906.19;5133243;27;20990;-53
2022/10/16 01:01:35;;;;;;;0.47;0.37;;;;;;;9.98;98.93;95923.72;5133848;27;20447;-53
2022/10/16 01:04:04;;;;;;;0.50;0.40;;;;;;;10.09;100.00;95924.63;5134053;27;20433;-53
2022/10/16 01:06:40;;;;;;;0.40;0.37;;;;;;;10.59;95.15;95921.63;5133669;27;20913;-53
2022/10/16 01:09:15;;;;;;;0.40;0.30;;;;;;;10.60;92.39;95883.47;5133621;27;20425;-54
2022/10/16 01:11:53;;;;;;;0.40;0.20;;;;;;;10.86;92.04;95917.03;5133866;27;21088;-53
2022/10/16 01:14:37;;;;;;;0.40;0.33;;;;;;;10.86;91.59;95917.03;5133802;27;20465;-53
2022/10/16 01:17:10;;;;;;;0.40;0.30;;;;;;;10.80;91.23;95923.38;5133465;27;21018;-53
2022/10/16 01:19:52;;;;;;;0.30;0.20;;;;;;;11.04;88.71;95921.13;5133454;27;20429;-53
2022/10/16 01:22:26;;;;;;;0.73;0.50;;;;;;;10.81;88.60;95933.72;5133412;27;20434;-53
2022/10/16 01:24:56;;;;;;;0.40;0.20;;;;;;;10.15;94.44;95932.41;5133297;27;20480;-53
2022/10/16 01:27:27;;;;;;;0.40;0.30;;;;;;;10.52;93.46;95940.41;5133661;27;20433;-53
2022/10/16 01:30:02;;;;;;;0.40;0.30;;;;;;;10.82;90.50;95931.88;5133864;27;20436;-54
2022/10/16 01:32:35;;;;;;;0.40;0.30;;;;;;;10.87;88.92;95937.22;5133463;27;20441;-54
2022/10/16 01:35:09;;;;;;;0.60;0.40;;;;;;;10.56;90.88;95941.50;5133175;27;20472;-54
2022/10/16 01:37:42;;;;;;;0.40;0.30;;;;;;;10.70;89.44;95941.88;5133380;27;20951;-54
2022/10/16 01:40:13;;;;;;;0.40;0.40;;;;;;;10.43;88.92;95886.25;5133283;27;20417;-54
2022/10/16 01:42:48;;;;;;;0.30;0.20;;;;;;;10.79;89.47;95945.63;5133218;27;20451;-55
2022/10/16 01:45:20;;;;;;;0.40;0.30;;;;;;;10.88;87.99;95938.78;5133356;27;20444;-54
2022/10/16 01:47:50;;;;;;;0.40;0.20;;;;;;;10.96;87.71;95930.34;5133549;27;20456;-54
2022/10/16 01:50:21;;;;;;;0.40;0.20;;;;;;;10.57;88.51;95932.50;5133085;27;20425;-54
2022/10/16 01:52:52;;;;;;;0.40;0.30;;;;;;;10.38;90.08;95930.47;5132887;27;20445;-54
2022/10/16 01:55:29;;;;;;;0.50;0.40;;;;;;;10.19;91.86;95938.00;5132653;27;20484;-54
2022/10/16 01:58:00;;;;;;;0.40;0.20;;;;;;;9.76;96.79;95946.00;5133104;27;20425;-55
2022/10/16 02:00:31;;;;;;;0.40;0.20;;;;;;;10.01;96.01;95946.28;5132239;27;20442;-54
2022/10/16 02:03:03;;;;;;;0.43;0.40;;;;;;;10.31;93.56;95961.66;5132735;27;20448;-54
2022/10/16 02:05:38;;;;;;;0.57;0.57;;;;;;;10.33;92.76;95956.91;5132780;27;20426;-54
2022/10/16 02:08:06;;;;;;;0.50;0.30;;;;;;;9.55;98.24;95969.59;5132580;27;21137;-54
2022/10/16 02:10:37;;;;;;;0.97;0.40;;;;;;;9.38;100.00;95960.13;5131804;27;20409;-54
2022/10/16 02:13:10;;;;;;;0.50;0.30;;;;;;;9.53;100.00;95958.47;5132598;27;20437;-54
2022/10/16 02:15:38;;;;;;;1.67;0.50;;;;;;;9.16;100.00;95967.25;5132708;27;20932;-55
2022/10/16 02:18:08;;;;;;;0.50;0.40;;;;;;;8.83;100.00;95973.34;5132043;27;20443;-54
2022/10/16 02:20:48;;;;;;;0.40;0.33;;;;;;;9.13;100.00;95962.44;5132692;27;20991;-54
2022/10/16 02:23:22;;;;;;;0.40;0.30;;;;;;;9.63;100.00;95968.34;5131917;27;20425;-55
2022/10/16 02:25:52;;;;;;;0.50;0.50;;;;;;;9.76;99.56;95961.88;5132444;27;20563;-55
2022/10/16 02:28:28;;;;;;;1.03;1.03;;;;;;;9.76;98.41;95948.66;5132921;27;20452;-54
2022/10/16 02:31:00;;;;;;;0.57;0.40;;;;;;;9.63;97.97;95941.91;5133050;27;20425;-54
2022/10/16 02:33:29;;;;;;;0.53;0.37;;;;;;;9.86;96.99;95962.81;5132510;27;20437;-54
2022/10/16 02:35:58;;;;;;;0.40;0.30;;;;;;;9.67;98.29;95960.72;5132517;27;20423;-53
2022/10/16 02:38:28;;;;;;;0.40;0.30;;;;;;;9.61;98.60;95961.72;5132556;27;20423;-53
2022/10/16 02:40:57;;;;;;;2.10;2.00;;;;;;;9.79;97.06;95967.47;5132760;27;20426;-53
2022/10/16 02:43:27;;;;;;;0.40;0.30;;;;;;;9.89;95.87;95974.75;5132581;27;20491;-53
2022/10/16 02:45:55;;;;;;;0.40;0.20;;;;;;;9.91;94.32;95978.75;5132656;27;20425;-54
2022/10/16 02:48:24;;;;;;;0.50;0.30;;;;;;;9.87;94.15;95977.63;5132386;27;20437;-54
2022/10/16 02:50:52;;;;;;;0.30;0.20;;;;;;;9.82;94.39;95988.16;5132344;27;20826;-54
2022/10/16 02:53:21;;;;;;;0.80;0.40;;;;;;;9.70;95.92;95990.13;5132638;27;20545;-54
2022/10/16 02:55:49;;;;;;;0.40;0.30;;;;;;;9.88;94.85;95997.78;5132324;27;20988;-54
2022/10/16 02:58:17;;;;;;;0.97;0.33;;;;;;;9.88;94.59;95995.13;5132284;27;20419;-54
2022/10/16 03:00:47;;;;;;;0.40;0.30;;;;;;;9.95;93.33;95982.47;5132445;27;20432;-54
2022/10/16 03:03:15;;;;;;;0.50;0.30;;;;;;;9.65;95.77;95998.03;5132377;27;20472;-54
2022/10/16 03:05:45;;;;;;;0.60;0.60;;;;;;;9.77;94.24;95996.03;5132575;27;20438;-54
2022/10/16 03:08:31;;;;;;;0.30;0.20;;;;;;;9.54;96.66;96004.22;5132572;28;20536;-55
2022/10/16 03:10:59;;;;;;;0.40;0.40;;;;;;;9.79;94.42;96003.75;5132432;27;20437;-54
2022/10/16 03:13:27;;;;;;;0.30;0.20;;;;;;;9.85;94.40;96015.97;5132211;27;20441;-54
2022/10/16 03:15:57;;;;;;;0.40;0.30;;;;;;;9.69;95.93;96015.00;5132044;27;20473;-54
2022/10/16 03:18:25;;;;;;;0.40;0.30;;;;;;;9.91;93.60;96015.00;5132451;27;20425;-55
2022/10/16 03:20:54;;;;;;;0.40;0.40;;;;;;;9.91;94.45;96010.53;5132492;27;20434;-54
2022/10/16 03:23:22;;;;;;;0.40;0.30;;;;;;;9.86;94.51;96023.69;5135769;27;20441;-55
2022/10/16 03:25:50;;;;;;;0.40;0.30;;;;;;;10.02;93.69;96014.06;5135134;27;21043;-54
2022/10/16 03:28:19;;;;;;;0.50;0.50;;;;;;;9.95;93.60;96016.91;5135456;27;20429;-54
2022/10/16 03:30:47;;;;;;;0.60;0.40;;;;;;;9.95;93.98;96022.19;5135966;27;20433;-54
2022/10/16 03:33:17;;;;;;;0.40;0.20;;;;;;;9.93;93.58;96021.66;5135515;27;20437;-54
2022/10/16 03:35:52;;;;;;;0.30;0.20;;;;;;;9.61;96.83;96017.28;5135703;27;20942;-54
2022/10/16 03:38:21;;;;;;;0.40;0.30;;;;;;;8.97;100.00;96018.78;5135339;27;20435;-55
2022/10/16 03:40:49;;;;;;;0.53;0.40;;;;;;;8.97;100.00;96022.22;5135498;27;20430;-54
2022/10/16 03:43:17;;;;;;;0.30;0.30;;;;;;;9.20;100.00;96026.53;5135720;27;20436;-54
2022/10/16 03:45:46;;;;;;;0.40;0.30;;;;;;;9.62;100.00;96024.97;5135140;27;20437;-54
2022/10/16 03:48:14;;;;;;;0.40;0.20;;;;;;;8.95;100.00;96014.50;5135665;27;20425;-55
2022/10/16 03:50:44;;;;;;;0.40;0.40;;;;;;;8.73;100.00;96029.50;5135657;27;20429;-54
2022/10/16 03:53:12;;;;;;;0.50;0.50;;;;;;;8.67;100.00;96029.66;5135255;27;20423;-55
2022/10/16 03:55:42;;;;;;;0.40;0.30;;;;;;;8.92;100.00;96024.78;5135185;27;20465;-54
2022/10/16 03:58:11;;;;;;;0.73;0.73;;;;;;;9.17;100.00;96019.88;5134571;27;20954;-53
2022/10/16 04:00:41;;;;;;;0.30;0.20;;;;;;;9.02;98.44;96017.00;5134914;27;20422;-54
2022/10/16 04:03:09;;;;;;;0.83;0.83;;;;;;;9.03;97.95;96020.47;5134976;27;20929;-54
2022/10/16 04:05:38;;;;;;;0.40;0.30;;;;;;;8.91;98.26;96021.34;5134682;27;20427;-54
2022/10/16 04:08:08;;;;;;;0.50;0.40;;;;;;;9.28;96.58;96012.88;5134815;27;20430;-54
2022/10/16 04:10:36;;;;;;;0.70;0.70;;;;;;;9.19;96.12;96017.78;5135060;27;20542;-54
2022/10/16 04:13:05;;;;;;;0.53;0.50;;;;;;;9.33;94.18;96024.34;5135133;27;20455;-54
2022/10/16 04:15:33;;;;;;;0.30;0.20;;;;;;;8.97;96.89;96030.16;5133929;27;20469;-54
2022/10/16 04:18:02;;;;;;;1.10;0.33;;;;;;;8.77;100.00;96027.19;5135085;27;20823;-54
2022/10/16 04:20:30;;;;;;;0.60;0.57;;;;;;;8.67;100.00;96029.66;5134565;27;20445;-54
2022/10/16 04:22:59;;;;;;;0.70;0.70;;;;;;;8.28;100.00;96029.53;5134524;27;20443;-54
2022/10/16 04:25:28;;;;;;;0.40;0.30;;;;;;;8.50;100.00;96027.00;5134356;27;20473;-54
2022/10/16 04:27:57;;;;;;;2.20;0.97;;;;;;;8.71;100.00;96018.38;5134139;27;20434;-54
2022/10/16 04:30:26;;;;;;;0.40;0.30;;;;;;;9.01;99.68;96025.16;5134804;27;20436;-54
2022/10/16 04:32:54;;;;;;;0.50;0.50;;;;;;;8.83;99.45;96020.94;5133326;27;20422;-55
2022/10/16 04:35:23;;;;;;;0.47;0.40;;;;;;;8.77;100.00;96028.00;5134300;27;20471;-55
2022/10/16 04:37:51;;;;;;;0.40;0.40;;;;;;;8.93;100.00;96032.47;5134425;27;20435;-53
2022/10/16 04:40:19;;;;;;;0.40;0.40;;;;;;;8.86;100.00;96031.84;5134582;27;20422;-54
2022/10/16 04:42:49;;;;;;;0.50;0.50;;;;;;;8.92;99.85;96033.53;5134440;27;20796;-53
2022/10/16 04:45:17;;;;;;;0.50;0.40;;;;;;;8.92;100.00;96027.44;5134072;27;20419;-54
2022/10/16 04:47:45;;;;;;;0.43;0.43;;;;;;;9.14;97.28;96032.78;5134321;27;20433;-53
2022/10/16 04:50:32;;;;;;;0.40;0.30;;;;;;;9.08;97.22;96039.84;5133768;27;20905;-53
2022/10/16 04:53:01;;;;;;;2.83;1.07;;;;;;;8.87;98.67;96043.22;5134289;27;20425;-54
2022/10/16 04:55:29;;;;;;;0.30;0.20;;;;;;;9.10;98.00;96044.88;5134363;27;20477;-53
2022/10/16 04:57:59;;;;;;;0.50;0.30;;;;;;;9.14;97.09;96051.28;5134194;27;20522;-54
2022/10/16 05:00:27;;;;;;;0.43;0.43;;;;;;;9.09;97.62;96056.50;5134090;27;20444;-54
2022/10/16 05:02:55;;;;;;;0.40;0.30;;;;;;;9.07;97.70;96045.38;5133286;27;20479;-54
2022/10/16 05:05:23;;;;;;;0.43;0.33;;;;;;;9.18;98.57;96053.22;5133644;27;20426;-54
2022/10/16 05:07:52;;;;;;;0.30;0.20;;;;;;;9.13;98.23;96052.34;5133898;27;20426;-54
2022/10/16 05:10:21;;;;;;;0.50;0.50;;;;;;;8.94;99.56;96055.22;5133779;27;20434;-53
2022/10/16 05:12:49;;;;;;;1.07;0.80;;;;;;;9.02;99.60;96048.72;5133636;27;20418;-53
2022/10/16 05:15:19;;;;;;;0.53;0.53;;;;;;;9.38;97.28;96053.50;5133381;27;20471;-54
2022/10/16 05:17:47;;;;;;;0.40;0.40;;;;;;;9.39;96.35;96056.94;5133223;27;20433;-53
2022/10/16 05:20:17;;;;;;;0.83;0.50;;;;;;;9.43;97.04;96056.22;5133800;27;20452;-53
2022/10/16 05:22:45;;;;;;;1.90;0.97;;;;;;;9.47;96.72;96056.53;5133285;27;20538;-54
2022/10/16 05:25:13;;;;;;;0.97;0.97;;;;;;;9.54;97.64;96062.44;5133443;27;21025;-54
2022/10/16 05:27:41;;;;;;;0.50;0.50;;;;;;;9.56;98.01;96061.16;5133309;27;20488;-53
2022/10/16 05:30:10;;;;;;;0.43;0.43;;;;;;;9.78;96.20;96058.53;5133367;27;20430;-53
2022/10/16 05:32:41;;;;;;;2.00;1.13;;;;;;;9.96;94.69;96068.84;5133215;27;20467;-53
2022/10/16 05:35:09;;;;;;;0.50;0.50;;;;;;;10.14;92.91;96068.53;5133182;27;20429;-53
2022/10/16 05:37:39;;;;;;;0.70;0.50;;;;;;;10.35;92.12;96066.13;5133348;27;20434;-53
2022/10/16 05:40:09;;;;;;;0.50;0.50;;;;;;;10.64;92.59;96070.13;5133001;27;20434;-54
2022/10/16 05:42:38;;;;;;;0.63;0.40;;;;;;;10.56;90.23;96079.31;5133446;27;20422;-55
2022/10/16 05:45:10;;;;;;;0.60;0.60;;;;;;;10.91;90.61;96084.16;5133214;27;20425;-55
2022/10/16 05:47:38;;;;;;;6.33;0.70;;;;;;;11.20;89.38;96089.97;5133033;27;20427;-52
2022/10/16 05:50:08;;;;;;;0.50;0.40;;;;;;;11.79;85.52;96093.31;5133528;27;20474;-54
2022/10/16 05:52:37;;;;;;;1.90;1.03;;;;;;;12.18;83.03;96075.94;5132764;27;20433;-56
2022/10/16 05:55:06;;;;;;;0.73;0.73;;;;;;;12.47;80.05;96034.56;5132899;27;20421;-54
2022/10/16 05:57:34;;;;;;;0.53;0.53;;;;;;;13.06;77.49;96092.63;5132701;27;20476;-54
2022/10/16 06:00:04;;;;;;;0.40;0.30;;;;;;;13.36;76.79;96103.28;5133220;27;20457;-54
2022/10/16 06:02:33;;;;;;;1.57;1.00;;;;;;;13.38;75.08;96085.22;5132694;27;20437;-54
2022/10/16 06:05:01;;;;;;;0.87;0.87;;;;;;;13.75;73.19;96099.00;5132806;27;20425;-55
2022/10/16 06:07:35;;;;;;;0.50;0.37;;;;;;;13.95;72.21;96093.63;5132614;27;20429;-56
2022/10/16 06:10:05;;;;;;;0.70;0.60;;;;;;;13.68;72.28;96103.81;5132944;27;20859;-55
2022/10/16 06:12:33;;;;;;;0.73;0.50;;;;;;;14.85;79.03;96102.28;5132716;27;20865;-53
2022/10/16 06:15:02;;;;;;;0.97;0.97;;;;;;;15.75;81.95;96092.78;5132654;27;20433;-55
2022/10/16 06:17:30;;;;;;;4.70;0.90;;;;;;;16.30;75.59;96095.94;5132398;28;20477;-54
2022/10/16 06:19:59;;;;;;;0.70;0.70;;;;;;;15.55;70.50;96081.50;5132792;27;20426;-54
2022/10/16 06:22:27;;;;;;;2.40;2.20;;;;;;;15.95;71.46;96093.66;5132822;27;20450;-54
2022/10/16 06:24:57;;;;;;;0.60;0.40;;;;;;;16.50;69.26;96107.19;5131814;27;20472;-53
2022/10/16 06:27:25;;;;;;;5.13;0.50;;;;;;;16.13;69.09;96112.44;5132425;27;20430;-53
2022/10/16 06:29:54;;;;;;;0.67;0.50;;;;;;;16.42;70.13;96110.50;5132184;27;20433;-54
2022/10/16 06:32:22;;;;;;;1.60;1.47;;;;;;;16.51;67.65;96107.97;5132425;27;20448;-58
2022/10/16 06:34:50;;;;;;;3.97;1.30;;;;;;;15.88;62.90;96115.41;5132250;27;20952;-58
2022/10/16 06:37:19;;;;;;;9.20;0.80;;;;;;;16.17;62.75;96116.13;5131810;27;20458;-58
2022/10/16 06:39:47;;;;;;;0.50;0.40;;;;;;;16.18;62.01;96099.03;5130513;27;20421;-58
2022/10/16 06:42:17;;;;;;;0.60;0.60;;;;;;;16.68;60.51;96075.41;5131236;27;20431;-58
2022/10/16 06:44:46;;;;;;;0.50;0.30;;;;;;;16.87;60.69;96109.16;5131307;27;20438;-57
2022/10/16 06:47:14;;;;;;;1.63;1.53;;;;;;;17.21;59.23;96106.22;5131731;27;20419;-56
2022/10/16 06:49:42;;;;;;;1.00;0.80;;;;;;;16.82;58.27;96109.22;5131553;27;20423;-61
2022/10/16 06:52:11;;;;;;;0.93;0.93;;;;;;;17.48;57.97;96108.22;5131881;27;20450;-56
2022/10/16 06:54:39;;;;;;;14.33;1.57;;;;;;;17.59;57.11;96115.00;5131812;27;20427;-56
2022/10/16 06:57:09;;;;;;;0.63;0.47;;;;;;;18.32;56.78;96097.03;5134225;27;20470;-56
2022/10/16 06:59:39;;;;;;;0.90;0.67;;;;;;;18.22;54.82;96113.34;5135742;27;20419;-56
2022/10/16 07:02:13;;;;;;;0.77;0.77;;;;;;;17.87;55.80;96111.31;5135739;27;20604;-59
2022/10/16 07:04:41;;;;;;;1.23;1.23;;;;;;;17.91;55.79;96106.16;5135513;27;20443;-55
2022/10/16 07:07:09;;;;;;;0.70;0.50;;;;;;;18.01;55.28;96103.28;5136175;27;20416;-55
2022/10/16 07:09:38;;;;;;;0.73;0.60;;;;;;;17.59;55.69;96118.50;5136022;27;20420;-56
2022/10/16 07:12:06;;;;;;;0.90;0.90;;;;;;;17.88;55.40;96112.13;5135745;27;20428;-56
2022/10/16 07:14:34;;;;;;;0.50;0.40;;;;;;;18.43;55.68;96108.38;5135624;27;20928;-56
2022/10/16 07:17:04;;;;;;;0.57;0.50;;;;;;;19.08;53.44;96116.13;5136003;27;20475;-56
2022/10/16 07:19:33;;;;;;;0.60;0.30;;;;;;;18.78;53.34;96120.28;5135682;27;20433;-55
2022/10/16 07:22:02;;;;;;;0.70;0.50;;;;;;;19.74;52.00;96120.75;5135645;27;20457;-55
2022/10/16 07:24:31;;;;;;;0.50;0.30;;;;;;;20.47;50.19;96115.59;5135551;27;20480;-54
2022/10/16 07:26:59;;;;;;;0.60;0.53;;;;;;;20.94;49.30;96113.19;5135348;27;20437;-54
2022/10/16 07:29:27;;;;;;;0.83;0.80;;;;;;;21.31;48.82;96104.50;5135754;27;20422;-55
2022/10/16 07:31:56;;;;;;;0.60;0.60;;;;;;;21.74;46.86;96107.16;5135555;27;20426;-55
2022/10/16 07:34:26;;;;;;;0.90;0.90;;;;;;;21.81;46.21;96113.66;5135632;27;20914;-55
2022/10/16 07:36:54;;;;;;;0.50;0.30;;;;;;;22.93;44.97;96107.81;5135737;27;20842;-54
2022/10/16 07:39:23;;;;;;;1.00;0.97;;;;;;;21.36;47.74;96107.84;5135885;27;20418;-54
2022/10/16 07:41:51;;;;;;;1.20;1.10;;;;;;;21.60;46.40;96110.03;5135351;27;20431;-54
2022/10/16 07:44:21;;;;;;;0.90;0.73;;;;;;;22.91;45.03;96104.66;5135416;27;20426;-54
2022/10/16 07:46:50;;;;;;;0.53;0.50;;;;;;;23.39;44.43;96104.97;5135346;27;20929;-54
2022/10/16 07:49:22;;;;;;;3.23;0.60;;;;;;;23.09;43.69;96101.50;5134881;27;20467;-52
2022/10/16 07:51:51;;;;;;;1.23;0.90;;;;;;;22.79;43.70;96104.59;5134969;27;20415;-53
2022/10/16 07:54:20;;;;;;;1.90;1.80;;;;;;;22.81;44.53;96097.72;5134984;27;20415;-53
2022/10/16 07:56:48;;;;;;;1.90;1.37;;;;;;;23.01;44.49;96096.16;5135216;27;20462;-52
2022/10/16 07:59:16;;;;;;;1.37;1.37;;;;;;;24.01;42.73;96097.50;5135185;27;20427;-52
2022/10/16 08:01:45;;;;;;;0.50;0.47;;;;;;;23.80;42.54;96091.38;5135396;27;20423;-52
2022/10/16 08:04:13;;;;;;;0.50;0.37;;;;;;;24.97;40.18;96078.94;5135464;27;20415;-52
2022/10/16 08:06:42;;;;;;;0.63;0.40;;;;;;;24.00;41.48;96068.84;5135174;27;20450;-53
2022/10/16 08:09:11;;;;;;;0.40;0.33;;;;;;;24.42;41.75;96076.78;5135161;27;20501;-53
2022/10/16 08:11:40;;;;;;;0.90;0.77;;;;;;;24.66;40.87;96068.66;5135135;27;20450;-53
2022/10/16 08:14:08;;;;;;;9.50;0.90;;;;;;;24.14;39.91;96082.09;5135054;27;20435;-52
2022/10/16 08:16:36;;;;;;;0.57;0.40;;;;;;;24.69;39.66;96070.72;5134956;27;20787;-53
2022/10/16 08:19:05;;;;;;;5.33;0.40;;;;;;;25.76;38.72;96059.09;5134971;27;20415;-53
2022/10/16 08:21:33;;;;;;;0.50;0.50;;;;;;;26.03;37.57;96062.91;5134629;27;20412;-53
2022/10/16 08:24:01;;;;;;;0.60;0.50;;;;;;;25.30;38.35;96059.75;5134418;27;20612;-53
2022/10/16 08:26:31;;;;;;;0.87;0.87;;;;;;;24.93;38.53;96059.84;5134576;27;20449;-52
2022/10/16 08:28:59;;;;;;;1.50;1.40;;;;;;;25.08;39.39;96064.56;5134523;27;20422;-52
2022/10/16 08:31:27;;;;;;;1.53;1.00;;;;;;;24.84;39.87;96064.63;5134428;27;20423;-52
2022/10/16 08:33:56;;;;;;;7.00;1.20;;;;;;;24.95;38.76;96065.69;5134485;27;20422;-52
2022/10/16 08:36:24;;;;;;;0.90;0.70;;;;;;;25.15;39.30;96064.75;5134306;27;20419;-52
2022/10/16 08:38:54;;;;;;;0.40;0.30;;;;;;;25.84;38.43;95998.41;5134565;27;20560;-52
2022/10/16 08:41:43;;;;;;;0.60;0.40;;;;;;;26.75;37.67;96053.41;5134291;27;20913;-52
2022/10/16 08:44:38;;;;;;;0.40;0.30;;;;;;;25.27;38.74;96055.81;5134198;27;20438;-52
2022/10/16 08:47:14;;;;;;;0.87;0.60;;;;;;;25.56;38.43;96051.97;5134316;27;20431;-52
2022/10/16 08:49:48;;;;;;;0.40;0.40;;;;;;;26.21;38.10;96045.16;5134435;27;20431;-53
2022/10/16 08:52:16;;;;;;;0.50;0.50;;;;;;;27.42;37.31;96050.25;5134469;27;20938;-53
2022/10/16 08:54:49;;;;;;;0.50;0.37;;;;;;;28.02;34.37;96039.72;5134118;27;20945;-53
2022/10/16 08:57:22;;;;;;;0.50;0.30;;;;;;;28.06;34.85;96046.78;5133747;27;20473;-53
2022/10/16 08:59:52;;;;;;;0.30;0.30;;;;;;;28.75;33.62;96001.16;5134112;27;20427;-52
2022/10/16 09:02:28;;;;;;;0.47;0.37;;;;;;;27.84;36.06;96046.75;5133707;27;20775;-52
2022/10/16 09:05:16;;;;;;;1.17;0.70;;;;;;;27.95;35.23;96021.28;5133823;27;20415;-53
2022/10/16 09:07:52;;;;;;;0.50;0.30;;;;;;;28.30;34.68;96046.44;5133824;27;20504;-53
2022/10/16 09:10:39;;;;;;;0.50;0.50;;;;;;;29.08;33.51;96031.22;5133908;27;20419;-53
2022/10/16 09:13:20;;;;;;;2.63;0.40;;;;;;;29.00;32.96;95990.56;5133686;27;20438;-53
2022/10/16 09:15:56;;;;;;;0.40;0.40;;;;;;;28.74;33.50;96030.38;5133690;27;20422;-53
2022/10/16 09:18:30;;;;;;;0.53;0.50;;;;;;;28.53;34.11;96032.78;5133564;27;20466;-53
2022/10/16 09:21:08;;;;;;;0.80;0.53;;;;;;;28.32;33.76;96002.44;5133442;27;20514;-53
2022/10/16 09:23:38;;;;;;;0.50;0.50;;;;;;;28.49;33.08;96025.69;5133248;27;20427;-53
2022/10/16 09:26:11;;;;;;;0.90;0.70;;;;;;;28.52;33.00;96014.03;5133500;27;20419;-53
2022/10/16 09:28:41;;;;;;;0.50;0.40;;;;;;;28.81;33.42;95961.47;5133533;27;20441;-53
2022/10/16 09:31:17;;;;;;;0.73;0.40;;;;;;;29.20;33.65;96016.56;5133271;27;20425;-53
2022/10/16 09:33:51;;;;;;;1.70;0.50;;;;;;;30.21;32.01;96009.88;5133297;27;20812;-53
2022/10/16 09:36:21;;;;;;;0.47;0.40;;;;;;;29.82;31.31;96004.84;5133291;27;20434;-53
2022/10/16 09:38:50;;;;;;;0.77;0.77;;;;;;;30.28;30.65;95996.25;5133251;27;20473;-53
2022/10/16 09:41:21;;;;;;;0.47;0.43;;;;;;;29.55;31.52;95997.88;5133051;27;20921;-53
2022/10/16 09:43:56;;;;;;;0.43;0.40;;;;;;;30.69;30.21;95984.03;5133168;27;20431;-53
2022/10/16 09:46:28;;;;;;;0.53;0.53;;;;;;;29.84;31.20;95991.56;5133432;27;20422;-53
2022/10/16 09:48:59;;;;;;;0.70;0.50;;;;;;;28.31;32.21;95989.94;5133395;27;20414;-53
2022/10/16 09:51:29;;;;;;;0.40;0.40;;;;;;;28.11;32.36;95933.94;5133378;27;20418;-53
2022/10/16 09:54:01;;;;;;;0.40;0.30;;;;;;;28.81;31.63;95977.84;5133195;27;20451;-53
2022/10/16 09:56:32;;;;;;;0.50;0.40;;;;;;;29.49;32.31;95991.19;5132954;27;20914;-53
2022/10/16 09:59:09;;;;;;;0.40;0.40;;;;;;;30.42;31.60;95982.69;5132709;27;20470;-54
2022/10/16 10:01:40;;;;;;;0.40;0.33;;;;;;;29.78;30.38;95975.91;5132851;27;20419;-54
2022/10/16 10:04:09;;;;;;;0.43;0.40;;;;;;;28.75;30.50;95971.94;5132962;27;20426;-54
2022/10/16 10:06:44;;;;;;;5.10;0.40;;;;;;;29.18;30.64;95978.72;5133259;27;20527;-54
2022/10/16 10:09:20;;;;;;;0.40;0.40;;;;;;;29.72;30.63;95967.22;5132508;27;20428;-54
2022/10/16 10:11:52;;;;;;;1.80;0.57;;;;;;;30.22;29.98;95943.84;5132717;27;20774;-54
2022/10/16 10:14:28;;;;;;;0.77;0.77;;;;;;;30.28;30.00;95955.22;5132966;27;20426;-54
2022/10/16 10:17:18;;;;;;;0.50;0.50;;;;;;;30.49;29.27;95952.63;5132984;27;20542;-54
2022/10/16 10:19:52;;;;;;;0.50;0.40;;;;;;;30.06;30.23;95948.78;5128434;27;20490;-54
2022/10/16 10:22:26;;;;;;;0.50;0.43;;;;;;;31.48;29.01;95950.38;5132980;27;20414;-54
2022/10/16 10:24:57;;;;;;;0.77;0.40;;;;;;;30.60;28.45;95950.75;5132503;27;20469;-54
2022/10/16 10:27:40;;;;;;;0.67;0.57;;;;;;;30.64;28.90;95951.56;5132665;27;20414;-54
2022/10/16 10:30:19;;;;;;;0.40;0.30;;;;;;;32.34;27.45;95939.88;5132593;27;20427;-54
2022/10/16 10:33:01;;;;;;;0.50;0.47;;;;;;;30.08;28.51;95941.78;5136430;27;20852;-54
2022/10/16 10:35:41;;;;;;;0.30;0.30;;;;;;;31.49;28.67;95935.53;5136387;27;20441;-54
2022/10/16 10:38:19;;;;;;;3.13;0.50;;;;;;;31.24;28.07;95932.69;5136424;27;20461;-54
2022/10/16 10:40:57;;;;;;;0.40;0.30;;;;;;;31.27;27.86;95929.94;5136429;27;20417;-54
2022/10/16 10:43:41;;;;;;;0.53;0.53;;;;;;;30.96;28.22;95922.44;5136627;27;20417;-54
2022/10/16 10:46:18;;;;;;;0.50;0.37;;;;;;;31.15;27.70;95922.09;5136343;27;20796;-54
2022/10/16 10:49:06;;;;;;;6.20;0.87;;;;;;;30.19;28.15;95920.78;5136394;27;20466;-54
2022/10/16 10:51:45;;;;;;;0.80;0.60;;;;;;;30.15;27.76;95919.97;5136489;27;20421;-54
2022/10/16 10:54:21;;;;;;;0.80;0.80;;;;;;;29.97;28.28;95912.78;5136484;27;20433;-54
2022/10/16 10:56:57;;;;;;;0.77;0.67;;;;;;;30.67;27.09;95907.78;5136165;27;20949;-54
2022/10/16 10:59:58;;;;;;;0.70;0.63;;;;;;;30.58;27.68;95912.06;5135908;27;20873;-54
2022/10/16 11:02:36;;;;;;;0.40;0.30;;;;;;;29.32;28.59;95905.16;5131374;27;20967;-54
2022/10/16 11:05:32;;;;;;;3.23;0.50;;;;;;;30.10;28.28;95900.41;5136084;27;20428;-53
2022/10/16 11:08:03;;;;;;;0.60;0.40;;;;;;;28.94;28.49;95910.97;5129403;27;20438;-53
2022/10/16 11:10:41;;;;;;;0.40;0.30;;;;;;;30.05;28.12;95893.34;5135779;27;20991;-53
2022/10/16 11:13:20;;;;;;;0.40;0.30;;;;;;;30.87;26.64;95889.09;5135670;27;20920;-54
2022/10/16 11:15:51;;;;;;;0.60;0.60;;;;;;;29.54;27.20;95889.78;5135676;27;20451;-54
2022/10/16 11:18:26;;;;;;;0.70;0.30;;;;;;;29.96;27.02;95860.06;5135766;27;20415;-54
2022/10/16 11:20:58;;;;;;;0.60;0.30;;;;;;;31.64;26.30;95885.81;5136400;27;20429;-54
2022/10/16 11:23:31;;;;;;;0.47;0.47;;;;;;;31.25;26.52;95879.47;5136073;27;20812;-54
2022/10/16 11:26:06;;;;;;;0.50;0.40;;;;;;;31.12;27.46;95879.03;5134376;27;20509;-54
2022/10/16 11:28:39;;;;;;;1.90;0.40;;;;;;;29.94;26.90;95883.47;5134492;27;20412;-54
2022/10/16 11:31:14;;;;;;;0.40;0.40;;;;;;;30.97;26.22;95882.16;5134129;27;20429;-54
2022/10/16 11:33:50;;;;;;;1.87;1.03;;;;;;;30.22;26.02;95874.69;5134206;27;20426;-54
2022/10/16 11:36:24;;;;;;;0.40;0.30;;;;;;;30.68;26.55;95878.47;5134223;27;20486;-54
2022/10/16 11:39:00;;;;;;;0.40;0.30;;;;;;;31.27;25.48;95834.06;5134287;27;20466;-54
2022/10/16 11:41:33;;;;;;;0.50;0.50;;;;;;;32.25;25.57;95865.44;5134491;27;20418;-53
2022/10/16 11:44:22;;;;;;;0.57;0.57;;;;;;;30.78;25.51;95815.56;5134431;27;20806;-54
2022/10/16 11:47:09;;;;;;;1.23;0.40;;;;;;;30.57;25.90;95863.97;5134380;27;20845;-53
2022/10/16 11:50:04;;;;;;;0.40;0.30;;;;;;;29.39;27.13;95855.28;5133885;27;20438;-53
2022/10/16 11:52:40;;;;;;;0.40;0.30;;;;;;;29.63;26.98;95848.44;5133935;27;20539;-53
2022/10/16 11:55:17;;;;;;;0.57;0.30;;;;;;;29.50;27.27;95856.16;5133967;27;20441;-53